Roland, IA (50236)

1:22 PM CST on November 18, 2017 (GMT -0600)
Prairie Ridge | | Change Station

Elev 1010 ft 42.19 °N, 93.58 °W | Updated 0 second ago

Clear
Clear
41.9 °F
Feels Like 33 °F
N
19.9
Wind Variable Wind from WNW
Gusts 27.5 mph

Today
High -- | Low -- °F
--% Chance of Precip.
Yesterday
High -- | Low -- °F
Precip. -- in
Pressure 29.85 in
Visibility 10.0 miles
Clouds Clear
Windchill 33 °F
Dew Point 15 °F
Humidity 33%
Rainfall 0.09 in
Snow Depth Not available.
7:08 AM 4:49 PM
New Moon, 0% visible
METAR KAMW 181853Z AUTO 32021G27KT 10SM CLR 06/M01 A2984 RMK AO2 PK WND 34028/1830 SLP107 T00561006 $
Pressure 29.85 in
Visibility 10.0 miles
Clouds Clear
Windchill 33 °F
Dew Point 15 °F
Humidity 33%
Rainfall 0.09 in
Snow Depth Not available.
7:08 AM 4:49 PM
New Moon, 0% visible
METAR KAMW 181853Z AUTO 32021G27KT 10SM CLR 06/M01 A2984 RMK AO2 PK WND 34028/1830 SLP107 T00561006 $

Get Severe Weather Alerts

Thanks for signing up!

Be on the lookout for a verification email in your inbox.

You'll start receiving the daily forecast at 6 AM.

×

10-Day Weather Forecast

Almanac

Astronomy

Nov. 18, 2017 Rise Set
Actual Time
Civil Twilight
Nautical Twilight
Astronomical Twilight
Moon
Length of Visible Light
Length of Day
Tomorrow will be .
, % of the Moon is Illuminated

Today's Extremes

State Highs State Lows

Community

WunderPhotos

Category 6

Welcome to Category 6. This is the collective home for Weather Underground's featured writeups by Dr. Jeff Masters (right), Bob Henson (left), Chris Burt, and other regular contributors.

Nearby

Air Quality

  Air Quality AQ Index Pollutant
Not available.

Snow Depth

Station Depth Elevation

Earthquake Activity

City Distance Mag. Time & Date
Minimum magnitude displayed is 2.5.

Coastal Water Temperatures

Place Temperature

Stations

Nearby Weather Stations

Station Location Temp. Windchill Dew Point Humidity Wind Precip. Elev Updated Type
                   

Watches & Warnings

There are currently no watches in effect.